createdAt,value
2019-05-06T00:02:59.943Z,6.80
2019-05-06T00:07:04.837Z,6.83
2019-05-06T00:11:10.797Z,6.89
2019-05-06T00:15:15.679Z,6.91
2019-05-06T00:19:20.569Z,6.97
2019-05-06T00:23:30.967Z,6.98
2019-05-06T00:27:54.422Z,6.94
2019-05-06T00:31:59.351Z,6.89
2019-05-06T00:36:04.805Z,6.90
2019-05-06T00:40:11.479Z,6.86
2019-05-06T00:44:16.371Z,6.82
2019-05-06T00:48:21.269Z,6.80
2019-05-06T00:52:26.442Z,6.68
2019-05-06T00:56:31.319Z,6.58
2019-05-06T01:00:38.153Z,6.48
2019-05-06T01:04:44.617Z,6.30
2019-05-06T01:08:49.508Z,6.16
2019-05-06T01:12:58.953Z,6.04
2019-05-06T01:17:04.019Z,5.94
2019-05-06T01:21:14.327Z,5.76
2019-05-06T01:25:18.564Z,5.50
2019-05-06T01:29:24.104Z,5.35
2019-05-06T01:33:29.115Z,5.28
2019-05-06T01:37:34.727Z,5.25
2019-05-06T01:41:41.309Z,5.31
2019-05-06T01:45:46.200Z,5.30
2019-05-06T01:49:51.087Z,5.31
2019-05-06T01:53:55.973Z,5.26
2019-05-06T01:58:01.933Z,5.20
2019-05-06T02:02:07.160Z,5.14
2019-05-06T02:06:14.160Z,5.02
2019-05-06T02:10:18.625Z,4.98
2019-05-06T02:14:24.626Z,4.87
2019-05-06T02:18:29.688Z,4.67
2019-05-06T02:22:43.826Z,4.50
2019-05-06T02:26:48.756Z,4.25
2019-05-06T02:30:57.955Z,4.16
2019-05-06T02:35:10.470Z,3.98
2019-05-06T02:39:15.352Z,3.91
2019-05-06T02:43:22.921Z,3.84
2019-05-06T02:47:43.705Z,3.76
2019-05-06T02:51:48.603Z,3.71
2019-05-06T02:55:53.494Z,3.65
2019-05-06T02:59:58.376Z,3.54
2019-05-06T03:04:04.426Z,3.56
2019-05-06T03:08:13.141Z,3.56
2019-05-06T03:12:16.210Z,3.65
2019-05-06T03:16:23.754Z,3.47
2019-05-06T03:20:44.060Z,3.33
2019-05-06T03:24:50.508Z,3.26
2019-05-06T03:28:55.390Z,3.19
2019-05-06T03:33:30.234Z,3.23
2019-05-06T03:37:08.420Z,3.19
2019-05-06T03:41:14.042Z,3.18
2019-05-06T03:45:23.720Z,3.20
2019-05-06T03:49:29.868Z,3.23
2019-05-06T03:53:36.368Z,3.23
2019-05-06T03:57:42.856Z,3.19
2019-05-06T04:01:47.897Z,3.22
2019-05-06T04:05:55.970Z,3.03
2019-05-06T04:10:03.546Z,3.00
2019-05-06T04:14:08.007Z,3.11
2019-05-06T04:18:14.609Z,3.18
2019-05-06T04:22:26.701Z,3.23
2019-05-06T04:26:35.903Z,3.41
2019-05-06T04:30:42.834Z,3.61
2019-05-06T04:34:47.702Z,3.67
2019-05-06T04:38:53.964Z,4.98
2019-05-06T04:42:59.961Z,7.20
2019-05-06T04:47:05.789Z,8.82
2019-05-06T04:51:13.421Z,10.13
2019-05-06T04:55:17.268Z,11.06
2019-05-06T04:59:23.288Z,12.00
2019-05-06T05:03:28.883Z,12.71
2019-05-06T05:07:33.845Z,13.42
2019-05-06T05:11:42.506Z,14.52
2019-05-06T05:15:48.681Z,15.46
2019-05-06T05:19:54.644Z,16.64
2019-05-06T05:23:59.541Z,17.38
2019-05-06T05:28:04.504Z,17.89
2019-05-06T05:32:09.407Z,18.27
2019-05-06T05:36:14.368Z,18.51
2019-05-06T05:40:19.259Z,19.45
2019-05-06T05:44:25.863Z,20.03
2019-05-06T05:48:32.564Z,20.49
2019-05-06T05:52:37.810Z,20.93
2019-05-06T05:56:43.159Z,21.05
2019-05-06T06:00:48.014Z,20.39
2019-05-06T06:04:57.229Z,20.39
2019-05-06T06:08:59.948Z,19.01
2019-05-06T06:13:04.989Z,19.01
2019-05-06T06:17:29.632Z,20.41
2019-05-06T06:21:36.175Z,21.79
2019-05-06T06:25:42.386Z,22.53
2019-05-06T06:29:47.385Z,23.63
2019-05-06T06:33:54.003Z,23.87
2019-05-06T06:38:02.626Z,24.01
2019-05-06T06:42:07.123Z,23.46
2019-05-06T06:46:12.628Z,23.18
2019-05-06T06:50:17.493Z,21.64
2019-05-06T06:54:22.883Z,21.57
2019-05-06T06:58:32.176Z,21.17
2019-05-06T07:02:43.256Z,21.97
2019-05-06T07:06:49.869Z,19.27
2019-05-06T07:10:54.760Z,15.73
2019-05-06T07:15:02.608Z,13.93
2019-05-06T07:19:07.672Z,12.94
2019-05-06T07:23:32.803Z,12.37
2019-05-06T07:27:37.815Z,11.94
2019-05-06T07:31:42.800Z,11.52
2019-05-06T07:35:47.689Z,11.31
2019-05-06T07:39:53.110Z,11.07
2019-05-06T07:44:02.032Z,10.95
2019-05-06T07:48:07.734Z,11.08
2019-05-06T07:52:12.627Z,10.93
2019-05-06T07:56:17.532Z,10.51
2019-05-06T08:00:23.019Z,10.20
2019-05-06T08:04:27.967Z,9.90
2019-05-06T08:08:33.865Z,9.92
2019-05-06T08:12:38.802Z,10.10
2019-05-06T08:16:45.353Z,10.21
2019-05-06T08:20:51.976Z,10.30
2019-05-06T08:24:57.197Z,10.38
2019-05-06T08:29:02.839Z,10.77
2019-05-06T08:33:07.872Z,11.05
2019-05-06T08:37:14.480Z,11.48
2019-05-06T08:41:19.372Z,11.91
2019-05-06T08:45:24.269Z,11.84
2019-05-06T08:49:31.986Z,11.80
2019-05-06T08:53:38.649Z,11.58
2019-05-06T08:57:44.284Z,11.78
2019-05-06T09:01:53.179Z,12.37
2019-05-06T09:05:57.648Z,12.39
2019-05-06T09:10:02.811Z,12.17
2019-05-06T09:14:10.061Z,12.16
2019-05-06T09:18:14.526Z,12.08
2019-05-06T09:22:19.417Z,11.93
2019-05-06T09:26:28.643Z,11.67
2019-05-06T09:30:38.582Z,11.71
2019-05-06T09:34:45.110Z,12.02
2019-05-06T09:38:53.085Z,12.21
2019-05-06T09:42:58.943Z,12.29
2019-05-06T09:47:05.451Z,12.34
2019-05-06T09:51:13.020Z,12.56
2019-05-06T09:55:19.213Z,12.88
2019-05-06T09:59:24.191Z,12.96
2019-05-06T10:03:29.129Z,13.18
2019-05-06T10:07:34.029Z,13.23
2019-05-06T10:11:38.910Z,13.10
2019-05-06T10:15:43.864Z,12.83
2019-05-06T10:19:49.043Z,12.42
2019-05-06T10:23:53.937Z,12.21
2019-05-06T10:28:02.734Z,12.37
2019-05-06T10:32:15.641Z,12.53
2019-05-06T10:36:20.869Z,12.64
2019-05-06T10:40:55.201Z,12.69
2019-05-06T10:44:49.945Z,13.04
2019-05-06T10:48:54.848Z,12.85
2019-05-06T10:53:07.105Z,12.43
2019-05-06T10:57:13.635Z,12.16
2019-05-06T11:01:22.974Z,11.73
2019-05-06T11:05:26.752Z,11.62
2019-05-06T11:09:33.313Z,11.64
2019-05-06T11:13:38.291Z,11.66
2019-05-06T11:17:43.727Z,11.83
2019-05-06T11:21:48.675Z,12.03
2019-05-06T11:25:53.574Z,12.46
2019-05-06T11:30:02.206Z,12.72
2019-05-06T11:34:24.894Z,13.03
2019-05-06T11:38:29.785Z,13.28
2019-05-06T11:42:35.949Z,13.67
2019-05-06T11:46:42.909Z,13.67
2019-05-06T11:50:49.265Z,13.70
2019-05-06T11:54:55.143Z,14.16
2019-05-06T11:59:02.409Z,14.48
2019-05-06T12:03:07.034Z,14.39
2019-05-06T12:07:15.634Z,14.16
2019-05-06T12:11:18.532Z,14.01
2019-05-06T12:15:23.431Z,14.01
2019-05-06T12:19:28.403Z,13.86
2019-05-06T12:23:35.306Z,13.77
2019-05-06T12:27:46.237Z,13.75
2019-05-06T12:31:53.017Z,13.80
2019-05-06T12:35:59.857Z,13.97
2019-05-06T12:40:05.365Z,13.97
2019-05-06T12:44:13.073Z,13.97
2019-05-06T12:48:18.483Z,13.88
2019-05-06T12:52:23.397Z,13.81
2019-05-06T12:56:28.468Z,13.72
2019-05-06T13:00:34.269Z,13.58
2019-05-06T13:04:51.317Z,13.72
2019-05-06T13:08:57.537Z,13.81
2019-05-06T13:12:54.271Z,13.94
2019-05-06T13:16:59.285Z,14.11
2019-05-06T13:21:06.553Z,14.32
2019-05-06T13:25:13.519Z,14.37
2019-05-06T13:29:19.386Z,14.31
2019-05-06T13:33:34.194Z,14.19
2019-05-06T13:37:38.522Z,14.02
2019-05-06T13:41:43.469Z,13.85
2019-05-06T13:45:59.667Z,13.90
2019-05-06T13:50:06.963Z,13.78
2019-05-06T13:54:15.487Z,13.61
2019-05-06T13:58:18.472Z,13.69
2019-05-06T14:02:25.007Z,13.76
2019-05-06T14:06:31.792Z,13.72
2019-05-06T14:10:36.485Z,13.75
2019-05-06T14:14:43.174Z,13.86
2019-05-06T14:18:47.987Z,14.16
2019-05-06T14:22:52.988Z,14.16
2019-05-06T14:27:05.175Z,14.66
2019-05-06T14:31:11.717Z,14.83
2019-05-06T14:35:16.623Z,14.73
2019-05-06T14:39:23.972Z,14.52
2019-05-06T14:43:28.954Z,14.49
2019-05-06T14:47:35.499Z,14.38
2019-05-06T14:51:42.545Z,14.59
2019-05-06T14:55:49.640Z,14.72
2019-05-06T14:59:55.798Z,14.44
2019-05-06T15:04:02.224Z,14.46
2019-05-06T15:08:07.131Z,13.96
2019-05-06T15:12:13.155Z,13.96
2019-05-06T15:16:18.324Z,13.91
2019-05-06T15:20:23.223Z,13.50
2019-05-06T15:24:28.132Z,13.20
2019-05-06T15:28:33.812Z,12.96
2019-05-06T15:32:39.482Z,12.72
2019-05-06T15:36:46.014Z,12.51
2019-05-06T15:40:52.482Z,12.44
2019-05-06T15:44:58.567Z,12.36
2019-05-06T15:49:03.459Z,12.42
2019-05-06T15:53:08.360Z,12.48
2019-05-06T15:57:14.213Z,12.50
2019-05-06T16:01:19.109Z,12.53
2019-05-06T16:05:26.387Z,12.62
2019-05-06T16:09:32.826Z,12.70
2019-05-06T16:13:37.216Z,12.85
2019-05-06T16:17:42.751Z,12.95
2019-05-06T16:21:47.787Z,12.77
2019-05-06T16:25:52.686Z,12.82
2019-05-06T16:29:57.586Z,12.84
2019-05-06T16:34:03.119Z,12.78
2019-05-06T16:38:08.174Z,12.78
2019-05-06T16:42:13.154Z,12.72
2019-05-06T16:46:18.037Z,12.61
2019-05-06T16:50:24.576Z,12.47
2019-05-06T16:54:31.583Z,12.40
2019-05-06T16:58:38.599Z,12.28
2019-05-06T17:02:56.536Z,12.23
2019-05-06T17:06:52.535Z,12.20
2019-05-06T17:10:57.504Z,12.13
2019-05-06T17:15:03.786Z,11.99
2019-05-06T17:19:08.873Z,11.91
2019-05-06T17:23:13.762Z,11.90
2019-05-06T17:27:18.669Z,11.91
2019-05-06T17:31:42.409Z,11.81
2019-05-06T17:35:47.049Z,11.58
2019-05-06T17:40:06.387Z,11.46
2019-05-06T17:43:59.657Z,11.43
2019-05-06T17:48:27.506Z,11.36
2019-05-06T17:52:33.359Z,11.22
2019-05-06T17:56:37.870Z,11.05
2019-05-06T18:00:43.039Z,10.97
2019-05-06T18:04:48.054Z,10.79
2019-05-06T18:08:52.961Z,10.67
2019-05-06T18:12:57.865Z,10.60
2019-05-06T18:17:03.655Z,10.54
2019-05-06T18:21:08.707Z,10.48
2019-05-06T18:25:13.677Z,10.44
2019-05-06T18:29:18.568Z,10.40
2019-05-06T18:33:23.465Z,10.30
2019-05-06T18:37:28.357Z,10.27
2019-05-06T18:41:33.261Z,10.28
2019-05-06T18:45:38.255Z,10.20
2019-05-06T18:49:43.159Z,10.09
2019-05-06T18:53:48.045Z,9.99
2019-05-06T18:57:53.082Z,9.96
2019-05-06T19:01:58.936Z,9.92
2019-05-06T19:06:03.955Z,9.93
2019-05-06T19:10:13.763Z,9.89
2019-05-06T19:14:18.651Z,9.89
2019-05-06T19:18:23.541Z,9.91
2019-05-06T19:22:28.436Z,9.83
2019-05-06T19:26:33.318Z,9.74
2019-05-06T19:30:38.219Z,9.71
2019-05-06T19:34:43.098Z,9.72
2019-05-06T19:38:47.991Z,9.75
2019-05-06T19:42:53.400Z,9.77
2019-05-06T19:46:58.343Z,9.78
2019-05-06T19:51:03.232Z,9.77
2019-05-06T19:55:08.288Z,9.68
2019-05-06T19:59:13.183Z,9.61
2019-05-06T20:03:19.046Z,9.60
2019-05-06T20:07:27.108Z,9.52
2019-05-06T20:11:37.356Z,9.45
2019-05-06T20:15:42.864Z,9.47
2019-05-06T20:19:47.908Z,9.57
2019-05-06T20:23:52.802Z,9.60
2019-05-06T20:27:58.761Z,9.58
2019-05-06T20:32:03.639Z,9.57
2019-05-06T20:36:08.535Z,9.44
2019-05-06T20:40:14.641Z,9.36
2019-05-06T20:44:19.729Z,9.41
2019-05-06T20:48:24.614Z,9.39
2019-05-06T20:52:30.572Z,9.44
2019-05-06T20:56:36.076Z,9.47
2019-05-06T21:00:43.024Z,9.41
2019-05-06T21:04:47.548Z,9.37
2019-05-06T21:08:53.012Z,9.31
2019-05-06T21:12:57.994Z,9.27
2019-05-06T21:17:02.960Z,9.23
2019-05-06T21:21:07.845Z,9.21
2019-05-06T21:25:13.089Z,9.17
2019-05-06T21:29:17.962Z,9.13
2019-05-06T21:33:22.846Z,9.05
2019-05-06T21:37:28.710Z,9.05
2019-05-06T21:41:33.600Z,9.06
2019-05-06T21:45:38.531Z,8.97
2019-05-06T21:49:43.422Z,8.85
2019-05-06T21:53:48.298Z,8.80
2019-05-06T21:57:53.187Z,8.75
2019-05-06T22:01:58.141Z,8.75
2019-05-06T22:06:03.201Z,8.75
2019-05-06T22:10:08.420Z,8.76
2019-05-06T22:14:13.315Z,8.83
2019-05-06T22:18:18.204Z,8.84
2019-05-06T22:22:32.470Z,8.80
2019-05-06T22:26:37.216Z,8.78
2019-05-06T22:30:42.615Z,8.71
2019-05-06T22:34:47.564Z,8.75
2019-05-06T22:38:53.143Z,8.81
2019-05-06T22:42:58.129Z,8.76
2019-05-06T22:47:03.014Z,8.82
2019-05-06T22:51:07.901Z,8.84
2019-05-06T22:55:13.183Z,8.89
2019-05-06T22:59:18.084Z,8.89
2019-05-06T23:03:27.567Z,8.87
2019-05-06T23:07:34.074Z,8.88
2019-05-06T23:11:39.134Z,8.86
2019-05-06T23:15:44.084Z,8.86
2019-05-06T23:19:48.977Z,8.83
2019-05-06T23:23:54.766Z,8.84
2019-05-06T23:27:59.734Z,8.85
2019-05-06T23:32:04.683Z,8.91
2019-05-06T23:36:09.580Z,8.96
2019-05-06T23:40:52.167Z,8.89
2019-05-06T23:45:33.596Z,8.81
2019-05-06T23:50:14.814Z,8.72
2019-05-06T23:54:56.146Z,8.68
2019-05-06T23:59:01.035Z,8.66
